Time;durP1;ratioP1;P1;durP2;ratioP2;P2;SDS_P1;SDS_P2;PMS_P1;PMS_P2;Temp;Humidity;BMP_temperature;BMP_pressure;BME280_temperature;BME280_humidity;BME280_pressure;Samples;Min_cycle;Max_cycle;Signal;HPM_P1;HPM_P2
2023/04/04 00:01:23;;;;;;;8.65;3.97;;;2.50;99.90;;;;;;5072582;28;20562;-45
2023/04/04 00:03:50;;;;;;;10.55;4.82;;;2.50;99.90;;;;;;5072673;28;20041;-45
2023/04/04 00:06:19;;;;;;;10.93;4.38;;;2.50;99.90;;;;;;5071318;28;20049;-45
2023/04/04 00:08:45;;;;;;;10.77;4.70;;;2.50;99.90;;;;;;5072555;28;20051;-47
2023/04/04 00:11:12;;;;;;;9.95;3.88;;;2.50;99.90;;;;;;5072720;28;20072;-45
2023/04/04 00:13:38;;;;;;;10.48;4.38;;;2.50;99.90;;;;;;5072502;28;20062;-47
2023/04/04 00:16:05;;;;;;;12.70;4.60;;;2.40;99.90;;;;;;5071758;28;20048;-46
2023/04/04 00:18:31;;;;;;;12.10;5.53;;;2.40;99.90;;;;;;5072517;28;20419;-46
2023/04/04 00:20:57;;;;;;;15.10;6.10;;;2.40;99.90;;;;;;5072125;28;20048;-46
2023/04/04 00:23:23;;;;;;;14.50;6.05;;;2.40;99.90;;;;;;5071111;28;20127;-46
2023/04/04 00:25:50;;;;;;;13.20;5.68;;;2.40;99.90;;;;;;5071144;28;20052;-46
2023/04/04 00:28:17;;;;;;;12.20;5.35;;;2.40;99.90;;;;;;5072294;28;20036;-46
2023/04/04 00:30:43;;;;;;;13.32;4.70;;;2.40;99.90;;;;;;5072276;28;20044;-45
2023/04/04 00:33:09;;;;;;;11.45;4.60;;;2.30;99.90;;;;;;5071884;28;20089;-45
2023/04/04 00:35:35;;;;;;;11.23;4.35;;;2.40;99.90;;;;;;5072106;28;20043;-46
2023/04/04 00:38:01;;;;;;;10.50;4.32;;;2.40;99.90;;;;;;5072273;28;20116;-45
2023/04/04 00:40:27;;;;;;;11.73;4.72;;;2.30;99.90;;;;;;5072064;28;20583;-45
2023/04/04 00:42:53;;;;;;;11.43;4.80;;;2.30;99.90;;;;;;5071019;28;20032;-46
2023/04/04 00:45:18;;;;;;;10.38;4.38;;;2.30;99.90;;;;;;5071002;28;20393;-46
2023/04/04 00:47:45;;;;;;;10.43;3.95;;;2.20;99.90;;;;;;5071900;28;20041;-45
2023/04/04 00:50:11;;;;;;;8.15;3.72;;;2.10;99.90;;;;;;5071692;28;20044;-46
2023/04/04 00:52:37;;;;;;;10.02;4.50;;;2.10;99.90;;;;;;5072054;28;20048;-46
2023/04/04 00:55:03;;;;;;;9.57;4.20;;;2.20;99.90;;;;;;5070496;28;20052;-45
2023/04/04 00:57:31;;;;;;;7.95;3.60;;;2.10;99.90;;;;;;5072042;28;20045;-48
2023/04/04 00:59:58;;;;;;;9.32;3.80;;;2.10;99.90;;;;;;5071605;28;20077;-46
2023/04/04 01:02:24;;;;;;;9.35;3.60;;;2.10;99.90;;;;;;5071670;28;20037;-45
2023/04/04 01:04:50;;;;;;;8.93;4.13;;;2.00;99.90;;;;;;5071727;28;20119;-46
2023/04/04 01:07:17;;;;;;;11.57;4.47;;;2.00;99.90;;;;;;5071913;28;20051;-45
2023/04/04 01:09:43;;;;;;;7.65;4.03;;;2.10;99.90;;;;;;5071864;28;20036;-46
2023/04/04 01:12:09;;;;;;;10.27;4.22;;;2.00;99.90;;;;;;5071823;28;20507;-46
2023/04/04 01:14:35;;;;;;;9.98;4.05;;;1.90;99.90;;;;;;5071605;28;20060;-45
2023/04/04 01:17:02;;;;;;;8.98;3.10;;;2.00;99.90;;;;;;5071707;28;20048;-45
2023/04/04 01:19:37;;;;;;;10.52;4.10;;;2.00;99.90;;;;;;5071623;28;20503;-44
2023/04/04 01:22:04;;;;;;;10.10;4.10;;;2.00;99.90;;;;;;5071623;28;20481;-45
2023/04/04 01:24:33;;;;;;;10.77;3.88;;;2.10;99.90;;;;;;5071556;28;20269;-45
2023/04/04 01:26:59;;;;;;;11.25;3.70;;;2.10;99.90;;;;;;5074450;28;20560;-45
2023/04/04 01:29:26;;;;;;;9.65;4.05;;;2.00;99.90;;;;;;5075593;28;20036;-45
2023/04/04 01:32:14;;;;;;;8.88;3.00;;;2.10;99.90;;;;;;5074290;28;20055;-45
2023/04/04 01:34:53;;;;;;;10.68;4.10;;;2.00;99.90;;;;;;5073924;28;20055;-46
2023/04/04 01:37:43;;;;;;;9.25;4.25;;;2.00;99.90;;;;;;5075527;28;20511;-46
2023/04/04 01:40:17;;;;;;;7.47;3.33;;;2.00;99.90;;;;;;5075388;28;20039;-46
2023/04/04 01:42:44;;;;;;;10.80;4.10;;;2.10;99.90;;;;;;5075484;28;20032;-45
2023/04/04 01:45:09;;;;;;;10.05;3.60;;;2.00;99.90;;;;;;5075470;28;20055;-45
2023/04/04 01:47:40;;;;;;;10.15;3.92;;;2.10;99.90;;;;;;5075248;28;20036;-46
2023/04/04 01:50:07;;;;;;;8.90;3.58;;;2.10;99.90;;;;;;5075119;28;20098;-49
2023/04/04 01:52:33;;;;;;;11.75;3.97;;;2.00;99.90;;;;;;5075238;28;20040;-48
2023/04/04 01:54:59;;;;;;;10.43;3.92;;;2.00;99.90;;;;;;5074822;28;20051;-46
2023/04/04 01:57:25;;;;;;;9.13;4.13;;;1.90;99.90;;;;;;5075268;28;20051;-46
2023/04/04 01:59:50;;;;;;;9.50;3.75;;;2.00;99.90;;;;;;5074575;28;20040;-45
2023/04/04 02:02:16;;;;;;;9.02;3.95;;;2.00;99.90;;;;;;5074861;28;20032;-46
2023/04/04 02:04:42;;;;;;;15.10;5.45;;;2.00;99.90;;;;;;5074918;28;20042;-46
2023/04/04 02:07:08;;;;;;;8.85;3.78;;;1.80;99.90;;;;;;5073721;28;20496;-46
2023/04/04 02:09:33;;;;;;;8.93;4.35;;;1.90;99.90;;;;;;5073522;28;20044;-46
2023/04/04 02:11:59;;;;;;;9.52;4.30;;;1.80;99.90;;;;;;5074929;28;20129;-46
2023/04/04 02:14:25;;;;;;;7.95;3.60;;;1.80;99.90;;;;;;5074653;28;20040;-47
2023/04/04 02:16:51;;;;;;;10.88;4.72;;;1.90;99.90;;;;;;5074912;28;20044;-46
2023/04/04 02:19:17;;;;;;;12.85;4.32;;;1.90;99.90;;;;;;5074615;28;20070;-48
2023/04/04 02:21:43;;;;;;;8.30;3.80;;;1.70;99.90;;;;;;5074384;28;20098;-46
2023/04/04 02:24:09;;;;;;;9.55;4.97;;;1.70;99.90;;;;;;5074854;28;20412;-48
2023/04/04 02:26:35;;;;;;;8.95;4.20;;;1.70;99.90;;;;;;5074812;28;20060;-47
2023/04/04 02:29:01;;;;;;;10.25;4.15;;;1.70;99.90;;;;;;5074809;28;20079;-45
2023/04/04 02:31:27;;;;;;;12.52;4.18;;;1.60;99.90;;;;;;5074256;28;20046;-46
2023/04/04 02:33:53;;;;;;;8.68;4.53;;;1.60;99.90;;;;;;5073036;28;20044;-47
2023/04/04 02:36:19;;;;;;;10.40;4.38;;;1.70;99.90;;;;;;5074242;28;20119;-46
2023/04/04 02:38:44;;;;;;;8.48;3.92;;;1.60;99.90;;;;;;5073803;28;20044;-47
2023/04/04 02:41:10;;;;;;;10.85;3.65;;;1.60;99.90;;;;;;5074403;28;20112;-46
2023/04/04 02:43:36;;;;;;;10.93;3.75;;;1.70;99.90;;;;;;5074156;28;20405;-46
2023/04/04 02:46:01;;;;;;;8.10;3.47;;;1.70;99.90;;;;;;5074064;28;20044;-47
2023/04/04 02:48:27;;;;;;;11.90;3.78;;;1.60;99.90;;;;;;5072810;28;20048;-45
2023/04/04 02:50:53;;;;;;;9.65;3.70;;;1.60;99.90;;;;;;5073934;28;20461;-45
2023/04/04 02:53:19;;;;;;;11.85;3.85;;;1.70;99.90;;;;;;5074012;28;20041;-45
2023/04/04 02:55:45;;;;;;;10.27;3.88;;;1.70;99.90;;;;;;5073873;28;20390;-46
2023/04/04 02:58:11;;;;;;;9.13;3.47;;;1.60;99.90;;;;;;5074152;28;20123;-46
2023/04/04 03:00:36;;;;;;;7.13;3.75;;;1.60;99.90;;;;;;5072633;28;20081;-46
2023/04/04 03:03:02;;;;;;;10.50;4.10;;;1.60;99.90;;;;;;5073914;28;20036;-46
2023/04/04 03:05:30;;;;;;;7.70;3.17;;;1.60;99.90;;;;;;5073789;28;20051;-46
2023/04/04 03:07:57;;;;;;;8.30;3.47;;;1.60;99.90;;;;;;5074067;28;20055;-46
2023/04/04 03:10:24;;;;;;;8.60;3.58;;;1.60;99.90;;;;;;5073811;28;20036;-46
2023/04/04 03:12:50;;;;;;;8.77;3.50;;;1.50;99.90;;;;;;5072734;28;20071;-46
2023/04/04 03:15:16;;;;;;;7.43;3.10;;;1.40;99.90;;;;;;5073641;28;20101;-45
2023/04/04 03:17:42;;;;;;;7.70;3.47;;;1.40;99.90;;;;;;5073640;28;20037;-46
2023/04/04 03:20:08;;;;;;;12.20;3.75;;;1.60;99.90;;;;;;5071981;28;20064;-46
2023/04/04 03:22:34;;;;;;;7.63;3.47;;;1.40;99.90;;;;;;5073749;28;20071;-45
2023/04/04 03:24:59;;;;;;;10.13;3.60;;;1.50;99.90;;;;;;5073529;28;20068;-46
2023/04/04 03:27:25;;;;;;;7.85;3.45;;;1.40;99.90;;;;;;5073566;28;20094;-45
2023/04/04 03:29:51;;;;;;;9.55;3.33;;;1.50;99.90;;;;;;5073540;28;20463;-46
2023/04/04 03:32:19;;;;;;;7.82;3.42;;;1.50;99.90;;;;;;5071646;28;20091;-48
2023/04/04 03:34:45;;;;;;;8.73;3.20;;;1.50;99.90;;;;;;5071903;28;20106;-46
2023/04/04 03:37:11;;;;;;;9.82;3.47;;;1.40;99.90;;;;;;5073389;28;20484;-46
2023/04/04 03:39:37;;;;;;;9.38;3.83;;;1.40;99.90;;;;;;5073409;28;20401;-46
2023/04/04 03:42:03;;;;;;;9.13;3.65;;;1.30;99.90;;;;;;5073092;28;20403;-48
2023/04/04 03:44:28;;;;;;;7.30;3.40;;;1.30;99.90;;;;;;5072996;28;20128;-47
2023/04/04 03:46:54;;;;;;;8.70;3.47;;;1.30;99.90;;;;;;5072751;28;20048;-46
2023/04/04 03:49:20;;;;;;;7.63;3.60;;;1.30;99.90;;;;;;5072973;28;20472;-46
2023/04/04 03:51:46;;;;;;;10.50;3.80;;;1.30;99.90;;;;;;5072847;28;20119;-45
2023/04/04 03:54:12;;;;;;;10.50;3.58;;;1.40;99.90;;;;;;5072708;28;20052;-46
2023/04/04 03:56:37;;;;;;;9.68;3.50;;;1.40;99.90;;;;;;5072967;28;20131;-46
2023/04/04 03:59:03;;;;;;;10.73;3.58;;;1.40;99.90;;;;;;5072762;28;20131;-45
2023/04/04 04:01:29;;;;;;;7.15;3.33;;;1.30;99.90;;;;;;5072335;28;20043;-46
2023/04/04 04:03:54;;;;;;;10.20;3.70;;;1.40;99.90;;;;;;5072558;28;20052;-45
2023/04/04 04:06:20;;;;;;;8.63;3.83;;;1.30;99.90;;;;;;5072831;28;20045;-45
2023/04/04 04:08:46;;;;;;;9.25;3.50;;;1.20;99.90;;;;;;5071325;28;20045;-45
2023/04/04 04:11:11;;;;;;;10.32;4.00;;;1.20;99.90;;;;;;5071134;28;20123;-45
2023/04/04 04:13:37;;;;;;;8.85;3.65;;;1.20;99.90;;;;;;5072611;28;20454;-46
2023/04/04 04:16:04;;;;;;;9.00;4.57;;;1.30;99.90;;;;;;5072576;28;20041;-47
2023/04/04 04:18:29;;;;;;;8.23;3.22;;;1.20;99.90;;;;;;5072196;28;20054;-46
2023/04/04 04:21:01;;;;;;;9.02;3.70;;;1.30;99.90;;;;;;5072623;28;20464;-45
2023/04/04 04:23:27;;;;;;;8.90;3.60;;;1.30;99.90;;;;;;5072538;28;20414;-46
2023/04/04 04:25:52;;;;;;;9.95;5.05;;;1.20;99.90;;;;;;5072388;28;20110;-46
2023/04/04 04:28:18;;;;;;;11.77;4.05;;;1.20;99.90;;;;;;5072346;28;20444;-47
2023/04/04 04:30:45;;;;;;;8.30;3.65;;;1.20;99.90;;;;;;5072265;28;20549;-46
2023/04/04 04:33:11;;;;;;;10.25;4.10;;;1.20;99.90;;;;;;5071817;28;20070;-46
2023/04/04 04:35:40;;;;;;;7.53;3.38;;;1.20;99.90;;;;;;5072420;28;20121;-47
2023/04/04 04:38:06;;;;;;;7.97;3.80;;;1.20;99.90;;;;;;5072179;28;20028;-46
2023/04/04 04:40:33;;;;;;;8.63;3.80;;;1.10;99.90;;;;;;5072054;28;20462;-45
2023/04/04 04:42:58;;;;;;;9.07;3.47;;;1.20;99.90;;;;;;5071346;28;20048;-47
2023/04/04 04:45:24;;;;;;;8.27;3.30;;;1.20;99.90;;;;;;5072061;28;20423;-45
2023/04/04 04:47:50;;;;;;;9.80;3.60;;;1.20;99.90;;;;;;5071945;28;20052;-46
2023/04/04 04:50:16;;;;;;;7.30;3.30;;;1.20;99.90;;;;;;5071793;28;20508;-45
2023/04/04 04:52:43;;;;;;;10.63;3.50;;;1.30;99.90;;;;;;5071921;28;20047;-45
2023/04/04 04:55:09;;;;;;;7.70;3.47;;;1.20;99.90;;;;;;5071713;28;20041;-45
2023/04/04 04:57:35;;;;;;;8.65;3.42;;;1.20;99.90;;;;;;5071789;28;20055;-45
2023/04/04 05:00:03;;;;;;;8.80;3.38;;;1.20;99.90;;;;;;5070638;28;20058;-45
2023/04/04 05:02:29;;;;;;;9.25;3.38;;;1.20;99.90;;;;;;5071761;28;20040;-45
2023/04/04 05:04:54;;;;;;;11.40;3.63;;;1.20;99.90;;;;;;5071709;28;20470;-48
2023/04/04 05:07:21;;;;;;;6.45;2.83;;;1.10;99.90;;;;;;5071966;28;20055;-45
2023/04/04 05:09:47;;;;;;;8.18;3.22;;;1.10;99.90;;;;;;5072240;28;20374;-50
2023/04/04 05:12:12;;;;;;;6.18;2.47;;;1.10;99.90;;;;;;5071688;28;20051;-46
2023/04/04 05:14:38;;;;;;;6.50;2.78;;;1.20;99.90;;;;;;5071639;28;20055;-48
2023/04/04 05:17:04;;;;;;;6.85;2.33;;;1.10;99.90;;;;;;5072032;28;20033;-46
2023/04/04 05:19:30;;;;;;;8.18;3.05;;;1.20;99.90;;;;;;5070426;28;20041;-45
2023/04/04 05:21:55;;;;;;;8.10;3.00;;;1.20;99.90;;;;;;5071701;28;20465;-46
2023/04/04 05:24:22;;;;;;;7.00;2.80;;;1.10;99.90;;;;;;5071637;28;20048;-45
2023/04/04 05:26:48;;;;;;;8.40;3.17;;;1.10;99.90;;;;;;5071661;28;20041;-45
2023/04/04 05:29:13;;;;;;;6.95;2.53;;;1.10;99.90;;;;;;5071517;28;20381;-47
2023/04/04 05:31:39;;;;;;;8.63;2.70;;;1.20;99.90;;;;;;5071797;28;20040;-45
2023/04/04 05:34:07;;;;;;;7.65;3.03;;;1.20;99.90;;;;;;5071336;28;20037;-46
2023/04/04 05:36:36;;;;;;;7.13;2.47;;;1.30;99.90;;;;;;5071677;28;20048;-45
2023/04/04 05:39:05;;;;;;;9.30;2.45;;;1.30;99.90;;;;;;5071354;28;20123;-45
2023/04/04 05:41:31;;;;;;;9.38;3.30;;;1.40;99.90;;;;;;5069833;28;20076;-44
2023/04/04 05:43:57;;;;;;;9.32;3.33;;;1.40;99.90;;;;;;5069862;28;20049;-48
2023/04/04 05:46:23;;;;;;;9.73;3.38;;;1.50;99.90;;;;;;5070165;28;20040;-45
2023/04/04 05:48:51;;;;;;;7.50;2.80;;;1.50;99.90;;;;;;5069446;28;20110;-44
2023/04/04 05:51:17;;;;;;;7.82;3.13;;;1.50;99.90;;;;;;5069911;28;20404;-45
2023/04/04 05:53:44;;;;;;;8.05;2.85;;;1.50;99.90;;;;;;5070205;28;20036;-44
2023/04/04 05:56:10;;;;;;;8.05;2.92;;;1.60;99.90;;;;;;5069634;28;20060;-46
2023/04/04 05:58:36;;;;;;;7.13;2.83;;;1.60;99.90;;;;;;5070187;28;20036;-44
2023/04/04 06:01:08;;;;;;;8.32;3.20;;;1.70;99.90;;;;;;5069918;28;20461;-44
2023/04/04 06:03:34;;;;;;;7.30;3.17;;;1.60;99.90;;;;;;5069858;28;20069;-46
2023/04/04 06:06:03;;;;;;;7.80;3.05;;;1.70;99.90;;;;;;5069713;28;20332;-45
2023/04/04 06:08:30;;;;;;;12.85;3.10;;;1.70;99.90;;;;;;5069400;28;20354;-46
2023/04/04 06:10:55;;;;;;;6.30;2.83;;;1.70;99.90;;;;;;5069598;28;20047;-46
2023/04/04 06:13:21;;;;;;;9.05;3.08;;;1.80;99.90;;;;;;5071057;28;20041;-45
2023/04/04 06:15:46;;;;;;;9.98;3.05;;;1.90;99.90;;;;;;5071947;28;20055;-47
2023/04/04 06:18:12;;;;;;;8.20;3.00;;;1.90;99.90;;;;;;5073074;28;20036;-45
2023/04/04 06:20:38;;;;;;;7.13;3.28;;;1.90;99.90;;;;;;5073052;28;20178;-47
2023/04/04 06:23:03;;;;;;;8.55;3.00;;;2.00;99.90;;;;;;5072941;28;20373;-46
2023/04/04 06:25:30;;;;;;;6.88;3.05;;;2.10;99.90;;;;;;5073114;28;20193;-48
2023/04/04 06:27:56;;;;;;;9.02;3.30;;;2.10;99.90;;;;;;5073188;28;20044;-45
2023/04/04 06:30:22;;;;;;;8.25;2.90;;;2.20;99.90;;;;;;5072913;28;20055;-48
2023/04/04 06:32:48;;;;;;;9.30;3.00;;;2.20;99.90;;;;;;5072750;28;20123;-47
2023/04/04 06:35:14;;;;;;;7.68;2.92;;;2.20;99.90;;;;;;5071140;28;20068;-45
2023/04/04 06:37:40;;;;;;;6.72;2.80;;;2.30;99.90;;;;;;5072785;28;20048;-45
2023/04/04 06:40:07;;;;;;;9.60;3.40;;;2.30;99.90;;;;;;5072304;28;20093;-46
2023/04/04 06:42:32;;;;;;;11.13;4.07;;;2.40;99.90;;;;;;5070377;28;20062;-47
2023/04/04 06:44:58;;;;;;;9.07;3.47;;;2.40;99.90;;;;;;5070355;28;20052;-45
2023/04/04 06:47:24;;;;;;;6.53;2.42;;;2.50;99.90;;;;;;5072486;28;20045;-48
2023/04/04 06:49:49;;;;;;;6.93;2.58;;;2.50;99.90;;;;;;5072523;28;20444;-46
2023/04/04 06:52:15;;;;;;;7.05;2.88;;;2.60;99.90;;;;;;5072717;28;20161;-45
2023/04/04 06:54:41;;;;;;;5.78;2.17;;;2.70;99.90;;;;;;5071673;28;20052;-47
2023/04/04 06:57:07;;;;;;;7.50;3.03;;;2.70;99.90;;;;;;5062180;28;20048;-50
2023/04/04 06:59:32;;;;;;;8.23;2.50;;;2.90;99.90;;;;;;5062509;28;20382;-47
2023/04/04 07:01:58;;;;;;;4.93;1.90;;;3.00;99.90;;;;;;5059546;28;20045;-48
2023/04/04 07:04:24;;;;;;;6.97;2.10;;;3.00;99.90;;;;;;5062426;28;20041;-46
2023/04/04 07:06:50;;;;;;;5.88;2.42;;;3.20;99.90;;;;;;5061612;28;20102;-46
2023/04/04 07:09:16;;;;;;;10.23;2.53;;;3.30;99.90;;;;;;5055154;28;20037;-45
2023/04/04 07:11:41;;;;;;;5.55;2.45;;;3.40;99.90;;;;;;5051178;28;20045;-46
2023/04/04 07:14:08;;;;;;;5.47;2.10;;;3.50;99.90;;;;;;5067362;28;20045;-46
2023/04/04 07:16:35;;;;;;;6.10;2.53;;;3.50;99.90;;;;;;5072276;28;20083;-47
2023/04/04 07:19:01;;;;;;;7.22;2.80;;;3.60;99.90;;;;;;5072088;28;20101;-46
2023/04/04 07:21:27;;;;;;;6.50;2.08;;;3.70;99.90;;;;;;5072003;28;20172;-47
2023/04/04 07:23:53;;;;;;;10.65;2.58;;;3.70;99.90;;;;;;5071074;28;20047;-49
2023/04/04 07:26:18;;;;;;;6.88;2.55;;;3.80;99.90;;;;;;5071496;28;20032;-48
2023/04/04 07:28:44;;;;;;;6.20;2.10;;;3.90;99.90;;;;;;5055322;28;20480;-47
2023/04/04 07:31:10;;;;;;;4.93;2.05;;;4.00;99.90;;;;;;5072483;28;20404;-46
2023/04/04 07:33:36;;;;;;;6.22;2.30;;;4.00;99.90;;;;;;5071629;28;20044;-46
2023/04/04 07:36:02;;;;;;;5.35;2.00;;;4.10;99.90;;;;;;5073379;28;20037;-46
2023/04/04 07:38:28;;;;;;;5.60;2.28;;;4.20;99.90;;;;;;5072159;28;20120;-45
2023/04/04 07:40:54;;;;;;;6.68;2.22;;;4.20;99.90;;;;;;5072964;28;20098;-45
2023/04/04 07:43:20;;;;;;;5.63;2.30;;;4.30;99.90;;;;;;5073265;28;20045;-45
2023/04/04 07:45:46;;;;;;;6.63;1.98;;;4.40;99.90;;;;;;5073122;28;20396;-46
2023/04/04 07:48:11;;;;;;;5.97;2.10;;;4.50;99.90;;;;;;5073068;28;20068;-46
2023/04/04 07:50:37;;;;;;;8.38;2.80;;;4.50;99.90;;;;;;5072844;28;20028;-45
2023/04/04 07:53:03;;;;;;;5.72;1.77;;;4.70;99.90;;;;;;5072479;28;20393;-46
2023/04/04 07:55:28;;;;;;;4.60;1.73;;;4.70;99.90;;;;;;5072582;28;20070;-45
2023/04/04 07:57:55;;;;;;;6.15;1.80;;;4.80;99.90;;;;;;5073039;28;20051;-46
2023/04/04 08:00:21;;;;;;;4.80;1.73;;;4.90;99.90;;;;;;5072681;28;20040;-46
2023/04/04 08:02:55;;;;;;;6.72;2.00;;;5.00;99.90;;;;;;5072769;28;20369;-47
2023/04/04 08:05:20;;;;;;;5.80;2.00;;;5.00;99.90;;;;;;5072531;28;20051;-47
2023/04/04 08:07:46;;;;;;;5.60;1.95;;;5.10;99.90;;;;;;5073135;28;20044;-47
2023/04/04 08:10:12;;;;;;;6.68;2.25;;;5.20;99.90;;;;;;5072465;28;20538;-45
2023/04/04 08:12:38;;;;;;;5.38;1.70;;;5.10;99.90;;;;;;5072566;28;20089;-47
2023/04/04 08:15:04;;;;;;;6.25;1.80;;;5.40;99.90;;;;;;5072425;28;20051;-47
2023/04/04 08:17:30;;;;;;;8.70;2.60;;;5.30;99.90;;;;;;5072480;28;20488;-45
2023/04/04 08:19:56;;;;;;;6.07;1.90;;;5.40;99.90;;;;;;5072236;28;20040;-45
2023/04/04 08:22:21;;;;;;;4.82;1.67;;;5.40;99.90;;;;;;5072015;28;20045;-48
2023/04/04 08:24:47;;;;;;;5.35;2.10;;;5.50;99.90;;;;;;5072585;28;20055;-45
2023/04/04 08:27:14;;;;;;;5.25;1.70;;;5.40;99.90;;;;;;5072198;28;20044;-46
2023/04/04 08:29:40;;;;;;;4.00;1.60;;;5.50;99.90;;;;;;5072221;28;20492;-47
2023/04/04 08:32:06;;;;;;;4.45;1.70;;;5.70;99.90;;;;;;5072124;28;20044;-45
2023/04/04 08:34:33;;;;;;;3.10;1.35;;;5.70;99.90;;;;;;5070616;28;20040;-45
2023/04/04 08:36:59;;;;;;;5.63;1.60;;;5.80;99.90;;;;;;5070163;28;20076;-46
2023/04/04 08:39:25;;;;;;;4.75;1.55;;;5.90;99.90;;;;;;5072202;28;20133;-45
2023/04/04 08:42:05;;;;;;;4.60;2.13;;;5.90;99.90;;;;;;5072031;28;20396;-45
2023/04/04 08:44:33;;;;;;;4.55;1.20;;;6.00;99.90;;;;;;5070969;28;20484;-45
2023/04/04 08:47:08;;;;;;;6.38;1.60;;;6.10;99.90;;;;;;5070545;28;20044;-47
2023/04/04 08:49:41;;;;;;;4.40;1.40;;;6.00;99.90;;;;;;5071798;28;20037;-45
2023/04/04 08:52:09;;;;;;;4.65;1.20;;;6.10;99.90;;;;;;5072148;28;20424;-45
2023/04/04 08:54:37;;;;;;;4.25;1.23;;;6.10;99.90;;;;;;5071666;28;20509;-48
2023/04/04 08:57:05;;;;;;;4.00;1.38;;;6.10;99.90;;;;;;5071967;28;20118;-47
2023/04/04 08:59:31;;;;;;;5.40;1.77;;;6.10;99.90;;;;;;5071914;28;20049;-47
2023/04/04 09:02:08;;;;;;;5.95;1.58;;;6.30;99.90;;;;;;5071730;28;20070;-46
2023/04/04 09:04:33;;;;;;;4.40;1.88;;;6.30;99.90;;;;;;5072015;28;20059;-46
2023/04/04 09:07:02;;;;;;;5.05;1.30;;;6.30;99.90;;;;;;5071986;28;20559;-46
2023/04/04 09:09:28;;;;;;;7.05;1.50;;;6.30;99.90;;;;;;5071787;28;20052;-46
2023/04/04 09:11:54;;;;;;;4.35;1.42;;;6.40;99.90;;;;;;5071733;28;20040;-46
2023/04/04 09:14:20;;;;;;;4.43;1.38;;;6.40;99.90;;;;;;5071578;28;20065;-49
2023/04/04 09:16:46;;;;;;;5.05;1.30;;;6.40;99.90;;;;;;5071896;28;20079;-46
2023/04/04 09:19:12;;;;;;;5.90;1.35;;;6.40;99.90;;;;;;5071567;28;20449;-47
2023/04/04 09:21:38;;;;;;;3.95;1.50;;;6.60;99.90;;;;;;5071598;28;20094;-47
2023/04/04 09:24:04;;;;;;;4.68;1.85;;;6.40;99.90;;;;;;5071844;28;20067;-47
2023/04/04 09:26:46;;;;;;;6.57;1.88;;;6.50;99.90;;;;;;5071617;28;20326;-46
2023/04/04 09:29:12;;;;;;;3.88;1.30;;;6.60;99.90;;;;;;5071689;28;20102;-46
2023/04/04 09:31:38;;;;;;;5.03;1.45;;;6.70;99.90;;;;;;5071588;28;20139;-49
2023/04/04 09:34:04;;;;;;;6.57;1.45;;;6.60;99.90;;;;;;5071713;28;20131;-47
2023/04/04 09:36:31;;;;;;;5.32;1.45;;;6.60;99.90;;;;;;5071561;28;20500;-50
2023/04/04 09:38:56;;;;;;;5.75;1.38;;;6.80;99.90;;;;;;5071440;28;20037;-49
2023/04/04 09:41:26;;;;;;;5.22;1.50;;;6.90;99.90;;;;;;5070079;28;20116;-46
2023/04/04 09:43:51;;;;;;;5.50;1.35;;;6.90;99.90;;;;;;5071660;28;20041;-46
2023/04/04 09:46:20;;;;;;;4.47;1.48;;;6.90;99.90;;;;;;5071526;28;20048;-47
2023/04/04 09:48:54;;;;;;;5.22;1.98;;;6.90;99.90;;;;;;5075250;28;20043;-47
2023/04/04 09:51:20;;;;;;;4.70;1.70;;;7.00;99.90;;;;;;5075159;28;20044;-47
2023/04/04 09:53:50;;;;;;;2.88;1.20;;;7.00;99.90;;;;;;5075117;28;20124;-47
2023/04/04 09:56:16;;;;;;;6.45;1.50;;;7.10;99.90;;;;;;5075412;28;20055;-47
2023/04/04 09:58:46;;;;;;;6.32;1.70;;;7.10;99.90;;;;;;5075195;28;20392;-47
2023/04/04 10:01:12;;;;;;;3.97;1.17;;;7.10;99.90;;;;;;5075114;28;20071;-47
2023/04/04 10:03:38;;;;;;;6.30;1.60;;;7.20;99.90;;;;;;5074955;28;20366;-46
2023/04/04 10:06:11;;;;;;;5.63;1.30;;;7.10;99.90;;;;;;5074955;28;20089;-45
2023/04/04 10:08:40;;;;;;;7.30;2.70;;;7.20;99.90;;;;;;5074654;28;20040;-47
2023/04/04 10:11:06;;;;;;;6.45;1.55;;;7.10;99.90;;;;;;5075023;28;20450;-46
2023/04/04 10:13:39;;;;;;;7.07;1.60;;;7.10;99.90;;;;;;5074663;28;20051;-46
2023/04/04 10:16:05;;;;;;;4.95;1.67;;;7.20;99.90;;;;;;5074893;28;20040;-46
2023/04/04 10:18:35;;;;;;;5.32;1.60;;;7.20;99.90;;;;;;5074580;28;20051;-45
2023/04/04 10:21:07;;;;;;;6.20;2.05;;;7.20;99.90;;;;;;5074678;28;20505;-47
2023/04/04 10:23:34;;;;;;;5.75;1.40;;;7.30;99.90;;;;;;5074580;28;20472;-45
2023/04/04 10:26:00;;;;;;;5.72;1.70;;;7.40;99.90;;;;;;5072744;28;20497;-46
2023/04/04 10:28:27;;;;;;;4.47;1.77;;;7.40;99.90;;;;;;5073225;28;20115;-45
2023/04/04 10:31:05;;;;;;;8.93;2.13;;;7.40;99.90;;;;;;5074608;28;20124;-45
2023/04/04 10:34:14;;;;;;;7.57;2.15;;;7.60;99.90;;;;;;5073951;28;20040;-46
2023/04/04 10:36:48;;;;;;;8.57;2.38;;;7.70;99.90;;;;;;5074434;28;20407;-46
2023/04/04 10:39:23;;;;;;;5.68;1.60;;;7.80;99.90;;;;;;5074486;28;20108;-45
2023/04/04 10:41:51;;;;;;;4.50;1.88;;;7.70;99.90;;;;;;5074227;28;20064;-46
2023/04/04 10:44:37;;;;;;;6.15;2.20;;;7.80;99.90;;;;;;5074362;28;20103;-46
2023/04/04 10:47:14;;;;;;;5.55;1.70;;;7.90;99.90;;;;;;5074289;28;20481;-45
2023/04/04 10:49:44;;;;;;;7.50;1.98;;;8.10;99.90;;;;;;5072789;28;20041;-46
2023/04/04 10:52:22;;;;;;;5.95;2.08;;;8.10;99.90;;;;;;5074185;28;20040;-45
2023/04/04 10:54:53;;;;;;;6.70;2.33;;;8.20;99.90;;;;;;5074099;28;20492;-45
2023/04/04 10:57:20;;;;;;;5.97;2.53;;;8.20;99.90;;;;;;5074058;28;20059;-44
2023/04/04 11:00:19;;;;;;;9.85;3.20;;;7.80;99.90;;;;;;5072279;28;20439;-48
2023/04/04 11:02:50;;;;;;;7.40;2.78;;;8.00;99.70;;;;;;5061792;28;20114;-50
2023/04/04 11:05:36;;;;;;;8.18;3.08;;;8.20;99.90;;;;;;5073983;28;20043;-47
2023/04/04 11:08:06;;;;;;;8.70;3.42;;;8.20;99.90;;;;;;5073696;28;20040;-46
2023/04/04 11:10:41;;;;;;;7.80;2.80;;;8.20;99.90;;;;;;5074004;28;20116;-46
2023/04/04 11:13:13;;;;;;;9.65;2.90;;;8.20;98.90;;;;;;5073649;28;20051;-46
2023/04/04 11:16:06;;;;;;;9.00;3.00;;;8.40;99.90;;;;;;5073443;28;20412;-46
2023/04/04 11:18:37;;;;;;;8.15;3.10;;;8.50;99.90;;;;;;5071615;28;20040;-61
2023/04/04 11:21:06;;;;;;;9.15;3.00;;;8.50;99.90;;;;;;5061750;28;20033;-47
2023/04/04 11:23:47;;;;;;;9.00;3.10;;;8.60;99.60;;;;;;5052931;28;20037;-51
2023/04/04 11:26:26;;;;;;;8.80;3.42;;;8.60;99.90;;;;;;5053216;28;20087;-45
2023/04/04 11:28:55;;;;;;;7.63;2.55;;;8.70;99.90;;;;;;5053948;28;20124;-46
2023/04/04 11:31:24;;;;;;;8.40;2.90;;;8.80;99.90;;;;;;5073260;28;20036;-45
2023/04/04 11:33:57;;;;;;;9.95;3.08;;;8.80;99.90;;;;;;5071833;28;20045;-45
2023/04/04 11:36:35;;;;;;;8.32;3.22;;;8.90;99.90;;;;;;5072979;28;20500;-48
2023/04/04 11:39:25;;;;;;;7.57;2.90;;;9.10;99.90;;;;;;5073077;28;20083;-45
2023/04/04 11:42:07;;;;;;;10.57;2.72;;;9.20;99.90;;;;;;5071364;28;20074;-46
2023/04/04 11:44:39;;;;;;;7.10;2.90;;;9.30;99.70;;;;;;5071498;28;20072;-45
2023/04/04 11:47:05;;;;;;;9.68;3.70;;;9.30;99.90;;;;;;5072629;28;20545;-46
2023/04/04 11:49:40;;;;;;;8.18;3.00;;;9.20;99.70;;;;;;5072337;28;20044;-46
2023/04/04 11:52:13;;;;;;;9.85;3.15;;;9.30;99.90;;;;;;5072315;28;20131;-45
2023/04/04 11:54:41;;;;;;;7.80;2.97;;;9.40;99.90;;;;;;5061680;28;20055;-45
2023/04/04 11:57:11;;;;;;;8.20;3.00;;;9.40;99.90;;;;;;5061916;28;20106;-45
2023/04/04 11:59:50;;;;;;;8.75;2.65;;;9.50;99.90;;;;;;5058620;28;20036;-46
2023/04/04 12:02:22;;;;;;;11.80;3.00;;;9.40;97.70;;;;;;5058418;28;20037;-47
2023/04/04 12:04:50;;;;;;;8.80;2.67;;;9.50;99.90;;;;;;5060667;28;20033;-46
2023/04/04 12:07:16;;;;;;;7.65;2.35;;;9.60;99.90;;;;;;5062341;28;20116;-47
2023/04/04 12:09:43;;;;;;;5.85;2.63;;;9.80;99.90;;;;;;5062359;28;20056;-49
2023/04/04 12:12:13;;;;;;;7.93;3.72;;;9.80;99.60;;;;;;5060385;28;20036;-46
2023/04/04 12:14:39;;;;;;;7.13;3.05;;;9.60;96.10;;;;;;5061692;28;20550;-46
2023/04/04 12:17:05;;;;;;;8.95;2.78;;;9.20;97.60;;;;;;5062700;28;20036;-49
2023/04/04 12:19:37;;;;;;;7.35;2.65;;;9.50;98.30;;;;;;5060762;28;20041;-47
2023/04/04 12:22:03;;;;;;;7.40;2.30;;;9.50;97.80;;;;;;5061355;28;20488;-46
2023/04/04 12:24:29;;;;;;;9.20;2.67;;;9.50;98.60;;;;;;5062911;28;20043;-49
2023/04/04 12:26:57;;;;;;;9.23;2.90;;;9.60;97.90;;;;;;5055051;28;20044;-47
2023/04/04 12:29:26;;;;;;;8.45;2.80;;;9.50;96.90;;;;;;5056167;28;20519;-46
2023/04/04 12:31:53;;;;;;;7.00;2.70;;;9.50;96.50;;;;;;5057592;28;20094;-50
2023/04/04 12:34:23;;;;;;;9.32;3.10;;;9.50;97.10;;;;;;5071723;28;20076;-45
2023/04/04 12:36:51;;;;;;;8.18;2.78;;;9.50;96.20;;;;;;5072374;28;20040;-48
2023/04/04 12:39:20;;;;;;;7.53;2.95;;;9.40;97.10;;;;;;5071460;28;20048;-48
2023/04/04 12:41:58;;;;;;;6.93;2.70;;;9.00;96.00;;;;;;5070290;28;20396;-45
2023/04/04 12:44:30;;;;;;;9.20;3.22;;;9.20;98.10;;;;;;5071298;28;20037;-45
2023/04/04 12:47:00;;;;;;;8.63;3.10;;;9.30;96.60;;;;;;5071125;28;20067;-48
2023/04/04 12:49:30;;;;;;;6.97;2.67;;;9.30;97.30;;;;;;5071433;28;20043;-45
2023/04/04 12:51:59;;;;;;;8.32;2.38;;;9.30;96.30;;;;;;5051791;28;20049;-45
2023/04/04 12:54:34;;;;;;;6.78;2.65;;;9.50;96.60;;;;;;5051189;28;20057;-46
2023/04/04 12:57:04;;;;;;;7.28;2.55;;;9.50;96.90;;;;;;5051089;28;20126;-46
2023/04/04 12:59:32;;;;;;;6.85;2.50;;;9.40;96.30;;;;;;5050882;28;20162;-46